sensor_id;sensor_type;location;lat;lon;timestamp;P1;durP1;ratioP1;P2;durP2;ratioP2
38208;SDS011;24016;52.102;11.584;2024-02-26T00:01:41;7.82;;;5.63;;
38208;SDS011;24016;52.102;11.584;2024-02-26T00:04:08;8.30;;;5.75;;
38208;SDS011;24016;52.102;11.584;2024-02-26T00:06:34;8.55;;;6.47;;
38208;SDS011;24016;52.102;11.584;2024-02-26T00:09:00;6.55;;;5.63;;
38208;SDS011;24016;52.102;11.584;2024-02-26T00:11:27;8.45;;;6.00;;
38208;SDS011;24016;52.102;11.584;2024-02-26T00:13:53;8.02;;;6.30;;
38208;SDS011;24016;52.102;11.584;2024-02-26T00:16:19;10.35;;;5.80;;
38208;SDS011;24016;52.102;11.584;2024-02-26T00:18:44;7.75;;;5.85;;
38208;SDS011;24016;52.102;11.584;2024-02-26T00:21:10;8.55;;;6.22;;
38208;SDS011;24016;52.102;11.584;2024-02-26T00:23:36;8.00;;;6.15;;
38208;SDS011;24016;52.102;11.584;2024-02-26T00:26:02;9.30;;;5.97;;
38208;SDS011;24016;52.102;11.584;2024-02-26T00:28:28;7.35;;;5.82;;
38208;SDS011;24016;52.102;11.584;2024-02-26T00:30:54;7.70;;;6.03;;
38208;SDS011;24016;52.102;11.584;2024-02-26T00:33:21;7.88;;;5.75;;
38208;SDS011;24016;52.102;11.584;2024-02-26T00:35:49;7.00;;;5.50;;
38208;SDS011;24016;52.102;11.584;2024-02-26T00:38:14;9.73;;;5.93;;
38208;SDS011;24016;52.102;11.584;2024-02-26T00:40:40;8.05;;;6.05;;
38208;SDS011;24016;52.102;11.584;2024-02-26T00:43:06;9.25;;;6.20;;
38208;SDS011;24016;52.102;11.584;2024-02-26T00:45:32;8.45;;;6.63;;
38208;SDS011;24016;52.102;11.584;2024-02-26T00:47:58;10.25;;;6.22;;
38208;SDS011;24016;52.102;11.584;2024-02-26T00:50:30;10.02;;;6.60;;
38208;SDS011;24016;52.102;11.584;2024-02-26T00:52:59;8.35;;;6.65;;
38208;SDS011;24016;52.102;11.584;2024-02-26T00:55:25;7.95;;;6.10;;
38208;SDS011;24016;52.102;11.584;2024-02-26T00:57:52;7.93;;;6.60;;
38208;SDS011;24016;52.102;11.584;2024-02-26T01:00:19;12.02;;;7.38;;
38208;SDS011;24016;52.102;11.584;2024-02-26T01:02:44;10.55;;;6.82;;
38208;SDS011;24016;52.102;11.584;2024-02-26T01:05:14;9.90;;;6.82;;
38208;SDS011;24016;52.102;11.584;2024-02-26T01:07:41;10.07;;;6.97;;
38208;SDS011;24016;52.102;11.584;2024-02-26T01:10:06;9.45;;;7.03;;
38208;SDS011;24016;52.102;11.584;2024-02-26T01:12:33;10.75;;;7.60;;
38208;SDS011;24016;52.102;11.584;2024-02-26T01:15:00;9.02;;;7.65;;
38208;SDS011;24016;52.102;11.584;2024-02-26T01:17:28;9.55;;;7.15;;
38208;SDS011;24016;52.102;11.584;2024-02-26T01:19:55;11.15;;;7.25;;
38208;SDS011;24016;52.102;11.584;2024-02-26T01:22:22;9.57;;;7.38;;
38208;SDS011;24016;52.102;11.584;2024-02-26T01:24:48;9.13;;;8.02;;
38208;SDS011;24016;52.102;11.584;2024-02-26T01:27:13;10.93;;;8.27;;
38208;SDS011;24016;52.102;11.584;2024-02-26T01:29:41;9.52;;;7.55;;
38208;SDS011;24016;52.102;11.584;2024-02-26T01:32:06;12.65;;;8.95;;
38208;SDS011;24016;52.102;11.584;2024-02-26T01:34:32;12.43;;;8.68;;
38208;SDS011;24016;52.102;11.584;2024-02-26T01:36:58;14.18;;;9.23;;
38208;SDS011;24016;52.102;11.584;2024-02-26T01:39:26;14.20;;;9.10;;
38208;SDS011;24016;52.102;11.584;2024-02-26T01:41:54;12.10;;;9.35;;
38208;SDS011;24016;52.102;11.584;2024-02-26T01:44:19;13.40;;;10.27;;
38208;SDS011;24016;52.102;11.584;2024-02-26T01:46:45;14.32;;;10.35;;
38208;SDS011;24016;52.102;11.584;2024-02-26T01:49:11;13.98;;;9.50;;
38208;SDS011;24016;52.102;11.584;2024-02-26T01:51:37;14.43;;;9.57;;
38208;SDS011;24016;52.102;11.584;2024-02-26T01:54:05;13.00;;;10.20;;
38208;SDS011;24016;52.102;11.584;2024-02-26T01:56:32;11.95;;;9.65;;
38208;SDS011;24016;52.102;11.584;2024-02-26T01:58:59;13.50;;;9.98;;
38208;SDS011;24016;52.102;11.584;2024-02-26T02:01:26;15.18;;;9.88;;
38208;SDS011;24016;52.102;11.584;2024-02-26T02:03:54;13.55;;;9.32;;
38208;SDS011;24016;52.102;11.584;2024-02-26T02:06:23;10.90;;;9.23;;
38208;SDS011;24016;52.102;11.584;2024-02-26T02:08:49;12.93;;;9.65;;
38208;SDS011;24016;52.102;11.584;2024-02-26T02:11:14;12.02;;;10.00;;
38208;SDS011;24016;52.102;11.584;2024-02-26T02:13:42;14.15;;;9.68;;
38208;SDS011;24016;52.102;11.584;2024-02-26T02:16:07;13.60;;;9.63;;
38208;SDS011;24016;52.102;11.584;2024-02-26T02:18:35;14.43;;;9.38;;
38208;SDS011;24016;52.102;11.584;2024-02-26T02:21:05;13.55;;;9.55;;
38208;SDS011;24016;52.102;11.584;2024-02-26T02:23:31;14.55;;;9.98;;
38208;SDS011;24016;52.102;11.584;2024-02-26T02:25:58;16.42;;;10.15;;
38208;SDS011;24016;52.102;11.584;2024-02-26T02:28:26;14.35;;;9.40;;
38208;SDS011;24016;52.102;11.584;2024-02-26T02:33:29;15.45;;;10.13;;
38208;SDS011;24016;52.102;11.584;2024-02-26T02:35:54;13.68;;;10.05;;
38208;SDS011;24016;52.102;11.584;2024-02-26T02:38:20;13.38;;;9.82;;
38208;SDS011;24016;52.102;11.584;2024-02-26T02:40:47;12.75;;;9.52;;
38208;SDS011;24016;52.102;11.584;2024-02-26T02:43:13;12.57;;;10.23;;
38208;SDS011;24016;52.102;11.584;2024-02-26T02:45:39;12.15;;;9.85;;
38208;SDS011;24016;52.102;11.584;2024-02-26T02:48:13;13.00;;;10.02;;
38208;SDS011;24016;52.102;11.584;2024-02-26T02:50:39;14.80;;;10.60;;
38208;SDS011;24016;52.102;11.584;2024-02-26T02:53:05;14.70;;;10.00;;
38208;SDS011;24016;52.102;11.584;2024-02-26T02:55:33;15.20;;;10.38;;
38208;SDS011;24016;52.102;11.584;2024-02-26T02:58:01;13.45;;;9.73;;
38208;SDS011;24016;52.102;11.584;2024-02-26T03:00:28;13.88;;;10.65;;
38208;SDS011;24016;52.102;11.584;2024-02-26T03:02:54;12.48;;;9.43;;
38208;SDS011;24016;52.102;11.584;2024-02-26T03:05:21;15.48;;;9.88;;
38208;SDS011;24016;52.102;11.584;2024-02-26T03:07:47;12.73;;;9.68;;
38208;SDS011;24016;52.102;11.584;2024-02-26T03:10:12;13.63;;;9.75;;
38208;SDS011;24016;52.102;11.584;2024-02-26T03:12:38;14.40;;;9.55;;
38208;SDS011;24016;52.102;11.584;2024-02-26T03:15:04;12.73;;;9.68;;
38208;SDS011;24016;52.102;11.584;2024-02-26T03:17:30;13.70;;;10.00;;
38208;SDS011;24016;52.102;11.584;2024-02-26T03:19:56;14.85;;;10.00;;
38208;SDS011;24016;52.102;11.584;2024-02-26T03:22:22;13.23;;;9.75;;
38208;SDS011;24016;52.102;11.584;2024-02-26T03:24:47;14.05;;;9.23;;
38208;SDS011;24016;52.102;11.584;2024-02-26T03:27:13;13.20;;;8.75;;
38208;SDS011;24016;52.102;11.584;2024-02-26T03:29:39;13.60;;;9.52;;
38208;SDS011;24016;52.102;11.584;2024-02-26T03:32:05;14.23;;;9.93;;
38208;SDS011;24016;52.102;11.584;2024-02-26T03:34:31;14.82;;;9.80;;
38208;SDS011;24016;52.102;11.584;2024-02-26T03:36:59;12.93;;;10.05;;
38208;SDS011;24016;52.102;11.584;2024-02-26T03:39:25;12.70;;;9.65;;
38208;SDS011;24016;52.102;11.584;2024-02-26T03:41:51;12.48;;;9.25;;
38208;SDS011;24016;52.102;11.584;2024-02-26T03:44:16;13.27;;;9.85;;
38208;SDS011;24016;52.102;11.584;2024-02-26T03:46:43;16.30;;;10.10;;
38208;SDS011;24016;52.102;11.584;2024-02-26T03:49:09;12.15;;;9.50;;
38208;SDS011;24016;52.102;11.584;2024-02-26T03:51:34;14.43;;;10.65;;
38208;SDS011;24016;52.102;11.584;2024-02-26T03:54:00;13.10;;;10.90;;
38208;SDS011;24016;52.102;11.584;2024-02-26T03:56:26;14.10;;;10.05;;
38208;SDS011;24016;52.102;11.584;2024-02-26T03:58:52;14.10;;;11.10;;
38208;SDS011;24016;52.102;11.584;2024-02-26T04:01:18;13.43;;;10.77;;
38208;SDS011;24016;52.102;11.584;2024-02-26T04:03:47;13.48;;;10.48;;
38208;SDS011;24016;52.102;11.584;2024-02-26T04:06:13;13.95;;;11.10;;
38208;SDS011;24016;52.102;11.584;2024-02-26T04:08:39;14.77;;;10.63;;
38208;SDS011;24016;52.102;11.584;2024-02-26T04:11:05;16.25;;;10.52;;
38208;SDS011;24016;52.102;11.584;2024-02-26T04:13:32;14.32;;;10.48;;
38208;SDS011;24016;52.102;11.584;2024-02-26T04:15:58;15.35;;;11.10;;
38208;SDS011;24016;52.102;11.584;2024-02-26T04:18:26;16.48;;;11.18;;
38208;SDS011;24016;52.102;11.584;2024-02-26T04:20:52;14.27;;;10.55;;
38208;SDS011;24016;52.102;11.584;2024-02-26T04:23:18;14.30;;;10.85;;
38208;SDS011;24016;52.102;11.584;2024-02-26T04:25:47;16.95;;;10.65;;
38208;SDS011;24016;52.102;11.584;2024-02-26T04:28:13;14.35;;;10.63;;
38208;SDS011;24016;52.102;11.584;2024-02-26T04:30:38;16.00;;;10.68;;
38208;SDS011;24016;52.102;11.584;2024-02-26T04:33:04;15.48;;;10.75;;
38208;SDS011;24016;52.102;11.584;2024-02-26T04:35:30;14.73;;;10.93;;
38208;SDS011;24016;52.102;11.584;2024-02-26T04:37:56;17.88;;;11.55;;
38208;SDS011;24016;52.102;11.584;2024-02-26T04:40:21;15.25;;;10.68;;
38208;SDS011;24016;52.102;11.584;2024-02-26T04:42:47;15.68;;;10.82;;
38208;SDS011;24016;52.102;11.584;2024-02-26T04:45:13;16.00;;;10.85;;
38208;SDS011;24016;52.102;11.584;2024-02-26T04:47:38;14.30;;;11.32;;
38208;SDS011;24016;52.102;11.584;2024-02-26T04:50:04;16.27;;;10.95;;
38208;SDS011;24016;52.102;11.584;2024-02-26T04:52:30;15.90;;;10.80;;
38208;SDS011;24016;52.102;11.584;2024-02-26T04:54:55;15.10;;;11.55;;
38208;SDS011;24016;52.102;11.584;2024-02-26T04:57:21;14.18;;;10.82;;
38208;SDS011;24016;52.102;11.584;2024-02-26T04:59:47;16.08;;;11.07;;
38208;SDS011;24016;52.102;11.584;2024-02-26T05:02:12;15.32;;;10.82;;
38208;SDS011;24016;52.102;11.584;2024-02-26T05:04:38;15.70;;;10.98;;
38208;SDS011;24016;52.102;11.584;2024-02-26T05:07:04;14.77;;;11.25;;
38208;SDS011;24016;52.102;11.584;2024-02-26T05:09:29;13.70;;;10.75;;
38208;SDS011;24016;52.102;11.584;2024-02-26T05:11:55;12.73;;;9.95;;
38208;SDS011;24016;52.102;11.584;2024-02-26T05:14:23;14.07;;;10.20;;
38208;SDS011;24016;52.102;11.584;2024-02-26T05:16:52;16.77;;;10.55;;
38208;SDS011;24016;52.102;11.584;2024-02-26T05:19:17;13.55;;;9.98;;
38208;SDS011;24016;52.102;11.584;2024-02-26T05:21:43;12.45;;;9.23;;
38208;SDS011;24016;52.102;11.584;2024-02-26T05:24:09;14.80;;;9.57;;
38208;SDS011;24016;52.102;11.584;2024-02-26T05:26:34;15.48;;;10.27;;
38208;SDS011;24016;52.102;11.584;2024-02-26T05:29:00;14.15;;;10.45;;
38208;SDS011;24016;52.102;11.584;2024-02-26T05:31:26;13.65;;;9.93;;
38208;SDS011;24016;52.102;11.584;2024-02-26T05:33:53;11.48;;;9.13;;
38208;SDS011;24016;52.102;11.584;2024-02-26T05:36:22;14.07;;;10.65;;
38208;SDS011;24016;52.102;11.584;2024-02-26T05:38:48;13.18;;;10.10;;
38208;SDS011;24016;52.102;11.584;2024-02-26T05:41:17;13.07;;;9.55;;
38208;SDS011;24016;52.102;11.584;2024-02-26T05:43:51;13.77;;;10.07;;
38208;SDS011;24016;52.102;11.584;2024-02-26T05:46:17;11.70;;;9.13;;
38208;SDS011;24016;52.102;11.584;2024-02-26T05:48:43;14.75;;;10.48;;
38208;SDS011;24016;52.102;11.584;2024-02-26T05:51:09;13.43;;;9.45;;
38208;SDS011;24016;52.102;11.584;2024-02-26T05:53:35;15.02;;;10.13;;
38208;SDS011;24016;52.102;11.584;2024-02-26T05:56:00;13.18;;;9.05;;
38208;SDS011;24016;52.102;11.584;2024-02-26T05:58:26;14.70;;;9.55;;
38208;SDS011;24016;52.102;11.584;2024-02-26T06:00:51;13.18;;;9.90;;
38208;SDS011;24016;52.102;11.584;2024-02-26T06:03:17;12.27;;;9.63;;
38208;SDS011;24016;52.102;11.584;2024-02-26T06:05:42;13.52;;;9.43;;
38208;SDS011;24016;52.102;11.584;2024-02-26T06:08:08;15.80;;;10.15;;
38208;SDS011;24016;52.102;11.584;2024-02-26T06:10:34;15.82;;;9.75;;
38208;SDS011;24016;52.102;11.584;2024-02-26T06:12:59;14.52;;;9.93;;
38208;SDS011;24016;52.102;11.584;2024-02-26T06:15:25;13.02;;;9.70;;
38208;SDS011;24016;52.102;11.584;2024-02-26T06:17:50;13.57;;;10.25;;
38208;SDS011;24016;52.102;11.584;2024-02-26T06:20:16;18.33;;;10.93;;
38208;SDS011;24016;52.102;11.584;2024-02-26T06:22:41;13.65;;;10.20;;
38208;SDS011;24016;52.102;11.584;2024-02-26T06:25:07;14.35;;;10.30;;
38208;SDS011;24016;52.102;11.584;2024-02-26T06:27:33;15.93;;;10.25;;
38208;SDS011;24016;52.102;11.584;2024-02-26T06:29:59;14.32;;;10.20;;
38208;SDS011;24016;52.102;11.584;2024-02-26T06:32:25;16.30;;;11.18;;
38208;SDS011;24016;52.102;11.584;2024-02-26T06:34:52;15.35;;;11.02;;
38208;SDS011;24016;52.102;11.584;2024-02-26T06:37:18;13.38;;;9.85;;
38208;SDS011;24016;52.102;11.584;2024-02-26T06:39:43;13.55;;;10.00;;
38208;SDS011;24016;52.102;11.584;2024-02-26T06:42:09;14.43;;;9.48;;
38208;SDS011;24016;52.102;11.584;2024-02-26T06:44:34;13.63;;;10.05;;
38208;SDS011;24016;52.102;11.584;2024-02-26T06:47:00;11.98;;;9.23;;
38208;SDS011;24016;52.102;11.584;2024-02-26T06:49:27;13.77;;;9.55;;
38208;SDS011;24016;52.102;11.584;2024-02-26T06:51:53;13.23;;;9.60;;
38208;SDS011;24016;52.102;11.584;2024-02-26T06:54:19;11.85;;;8.95;;
38208;SDS011;24016;52.102;11.584;2024-02-26T06:56:46;11.88;;;9.05;;
38208;SDS011;24016;52.102;11.584;2024-02-26T06:59:12;13.55;;;9.90;;
38208;SDS011;24016;52.102;11.584;2024-02-26T07:01:40;14.82;;;9.20;;
38208;SDS011;24016;52.102;11.584;2024-02-26T07:04:08;13.23;;;9.25;;
38208;SDS011;24016;52.102;11.584;2024-02-26T07:06:35;12.75;;;8.70;;
38208;SDS011;24016;52.102;11.584;2024-02-26T07:09:01;13.00;;;9.35;;
38208;SDS011;24016;52.102;11.584;2024-02-26T07:11:27;12.13;;;8.82;;
38208;SDS011;24016;52.102;11.584;2024-02-26T07:13:52;12.05;;;8.80;;
38208;SDS011;24016;52.102;11.584;2024-02-26T07:16:17;11.10;;;8.63;;
38208;SDS011;24016;52.102;11.584;2024-02-26T07:18:43;13.30;;;8.60;;
38208;SDS011;24016;52.102;11.584;2024-02-26T07:21:09;10.90;;;8.63;;
38208;SDS011;24016;52.102;11.584;2024-02-26T07:23:34;11.45;;;8.90;;
38208;SDS011;24016;52.102;11.584;2024-02-26T07:26:00;9.90;;;7.82;;
38208;SDS011;24016;52.102;11.584;2024-02-26T07:28:25;11.23;;;8.80;;
38208;SDS011;24016;52.102;11.584;2024-02-26T07:30:51;15.93;;;8.20;;
38208;SDS011;24016;52.102;11.584;2024-02-26T07:33:16;14.60;;;9.27;;
38208;SDS011;24016;52.102;11.584;2024-02-26T07:35:42;13.77;;;8.45;;
38208;SDS011;24016;52.102;11.584;2024-02-26T07:38:07;10.77;;;8.65;;
38208;SDS011;24016;52.102;11.584;2024-02-26T07:40:33;14.52;;;9.05;;
38208;SDS011;24016;52.102;11.584;2024-02-26T07:42:58;9.98;;;8.48;;
38208;SDS011;24016;52.102;11.584;2024-02-26T07:45:24;11.95;;;8.60;;
38208;SDS011;24016;52.102;11.584;2024-02-26T07:47:49;10.40;;;8.05;;
38208;SDS011;24016;52.102;11.584;2024-02-26T07:50:16;10.70;;;7.93;;
38208;SDS011;24016;52.102;11.584;2024-02-26T07:52:42;9.30;;;7.43;;
38208;SDS011;24016;52.102;11.584;2024-02-26T07:55:08;10.50;;;7.30;;
38208;SDS011;24016;52.102;11.584;2024-02-26T07:57:33;9.70;;;7.45;;
38208;SDS011;24016;52.102;11.584;2024-02-26T07:59:59;9.88;;;7.70;;
38208;SDS011;24016;52.102;11.584;2024-02-26T08:02:25;9.57;;;7.32;;
38208;SDS011;24016;52.102;11.584;2024-02-26T08:04:51;8.07;;;6.53;;
38208;SDS011;24016;52.102;11.584;2024-02-26T08:07:16;8.15;;;5.82;;
38208;SDS011;24016;52.102;11.584;2024-02-26T08:09:42;11.02;;;6.22;;
38208;SDS011;24016;52.102;11.584;2024-02-26T08:12:07;7.43;;;5.70;;
38208;SDS011;24016;52.102;11.584;2024-02-26T08:14:33;8.23;;;5.78;;
38208;SDS011;24016;52.102;11.584;2024-02-26T08:16:59;5.93;;;5.10;;
38208;SDS011;24016;52.102;11.584;2024-02-26T08:19:26;9.75;;;5.45;;
38208;SDS011;24016;52.102;11.584;2024-02-26T08:21:52;6.00;;;5.20;;
38208;SDS011;24016;52.102;11.584;2024-02-26T08:24:17;8.77;;;5.30;;
38208;SDS011;24016;52.102;11.584;2024-02-26T08:26:43;7.40;;;4.80;;
38208;SDS011;24016;52.102;11.584;2024-02-26T08:29:08;8.88;;;5.75;;
38208;SDS011;24016;52.102;11.584;2024-02-26T08:31:34;9.00;;;5.03;;
38208;SDS011;24016;52.102;11.584;2024-02-26T08:34:02;6.93;;;5.10;;
38208;SDS011;24016;52.102;11.584;2024-02-26T08:36:28;7.40;;;4.43;;
38208;SDS011;24016;52.102;11.584;2024-02-26T08:38:53;6.25;;;4.43;;
38208;SDS011;24016;52.102;11.584;2024-02-26T08:41:19;6.18;;;4.55;;
38208;SDS011;24016;52.102;11.584;2024-02-26T08:43:44;6.47;;;4.80;;
38208;SDS011;24016;52.102;11.584;2024-02-26T08:46:10;6.93;;;4.90;;
38208;SDS011;24016;52.102;11.584;2024-02-26T08:48:38;9.80;;;4.88;;
38208;SDS011;24016;52.102;11.584;2024-02-26T08:51:05;7.90;;;5.18;;
38208;SDS011;24016;52.102;11.584;2024-02-26T08:53:31;9.60;;;4.72;;
38208;SDS011;24016;52.102;11.584;2024-02-26T08:55:57;6.35;;;4.75;;
38208;SDS011;24016;52.102;11.584;2024-02-26T08:58:22;7.50;;;4.88;;
38208;SDS011;24016;52.102;11.584;2024-02-26T09:00:48;6.45;;;4.57;;
38208;SDS011;24016;52.102;11.584;2024-02-26T09:03:13;9.25;;;5.07;;
38208;SDS011;24016;52.102;11.584;2024-02-26T09:05:39;5.57;;;4.63;;
38208;SDS011;24016;52.102;11.584;2024-02-26T09:08:05;7.43;;;5.13;;
38208;SDS011;24016;52.102;11.584;2024-02-26T09:10:30;6.25;;;5.07;;
38208;SDS011;24016;52.102;11.584;2024-02-26T09:12:57;7.05;;;4.97;;
38208;SDS011;24016;52.102;11.584;2024-02-26T09:15:23;7.15;;;5.00;;
38208;SDS011;24016;52.102;11.584;2024-02-26T09:17:48;8.30;;;4.80;;
38208;SDS011;24016;52.102;11.584;2024-02-26T09:20:15;8.43;;;5.28;;
38208;SDS011;24016;52.102;11.584;2024-02-26T09:22:44;7.28;;;4.95;;
38208;SDS011;24016;52.102;11.584;2024-02-26T09:25:13;9.05;;;4.78;;
38208;SDS011;24016;52.102;11.584;2024-02-26T09:27:40;6.57;;;5.07;;
38208;SDS011;24016;52.102;11.584;2024-02-26T09:30:10;6.60;;;4.97;;
38208;SDS011;24016;52.102;11.584;2024-02-26T09:32:36;6.57;;;5.18;;
38208;SDS011;24016;52.102;11.584;2024-02-26T09:35:02;6.57;;;4.72;;
38208;SDS011;24016;52.102;11.584;2024-02-26T09:37:28;9.45;;;5.55;;
38208;SDS011;24016;52.102;11.584;2024-02-26T09:39:53;6.78;;;5.35;;
38208;SDS011;24016;52.102;11.584;2024-02-26T09:42:19;8.55;;;5.78;;
38208;SDS011;24016;52.102;11.584;2024-02-26T09:44:45;8.90;;;5.55;;
38208;SDS011;24016;52.102;11.584;2024-02-26T09:47:11;6.97;;;5.32;;
38208;SDS011;24016;52.102;11.584;2024-02-26T09:49:42;7.53;;;5.53;;
38208;SDS011;24016;52.102;11.584;2024-02-26T09:52:08;6.82;;;5.05;;
38208;SDS011;24016;52.102;11.584;2024-02-26T09:54:34;9.05;;;5.70;;
38208;SDS011;24016;52.102;11.584;2024-02-26T09:57:01;8.00;;;5.65;;
38208;SDS011;24016;52.102;11.584;2024-02-26T09:59:34;7.72;;;5.78;;
38208;SDS011;24016;52.102;11.584;2024-02-26T10:02:04;9.52;;;6.68;;
38208;SDS011;24016;52.102;11.584;2024-02-26T10:04:31;8.52;;;6.45;;
38208;SDS011;24016;52.102;11.584;2024-02-26T10:06:57;8.63;;;5.50;;
38208;SDS011;24016;52.102;11.584;2024-02-26T10:09:24;7.47;;;5.80;;
38208;SDS011;24016;52.102;11.584;2024-02-26T10:11:50;13.23;;;6.70;;
38208;SDS011;24016;52.102;11.584;2024-02-26T10:14:16;7.93;;;5.80;;
38208;SDS011;24016;52.102;11.584;2024-02-26T10:16:42;7.68;;;5.57;;
38208;SDS011;24016;52.102;11.584;2024-02-26T10:19:08;8.82;;;6.20;;
38208;SDS011;24016;52.102;11.584;2024-02-26T10:21:34;9.02;;;6.10;;
38208;SDS011;24016;52.102;11.584;2024-02-26T10:24:01;10.68;;;6.13;;
38208;SDS011;24016;52.102;11.584;2024-02-26T10:26:26;9.00;;;6.25;;
38208;SDS011;24016;52.102;11.584;2024-02-26T10:28:52;8.75;;;6.03;;
38208;SDS011;24016;52.102;11.584;2024-02-26T10:31:17;8.18;;;6.47;;
38208;SDS011;24016;52.102;11.584;2024-02-26T10:33:43;8.82;;;6.05;;
38208;SDS011;24016;52.102;11.584;2024-02-26T10:36:09;9.43;;;6.53;;
38208;SDS011;24016;52.102;11.584;2024-02-26T10:38:36;10.30;;;6.82;;
38208;SDS011;24016;52.102;11.584;2024-02-26T10:41:02;8.63;;;6.57;;
38208;SDS011;24016;52.102;11.584;2024-02-26T10:43:29;9.40;;;6.55;;
38208;SDS011;24016;52.102;11.584;2024-02-26T10:45:55;9.68;;;6.72;;
38208;SDS011;24016;52.102;11.584;2024-02-26T10:48:21;9.43;;;6.95;;
38208;SDS011;24016;52.102;11.584;2024-02-26T10:50:46;10.77;;;7.25;;
38208;SDS011;24016;52.102;11.584;2024-02-26T10:53:13;8.90;;;6.82;;
38208;SDS011;24016;52.102;11.584;2024-02-26T10:55:54;9.13;;;6.47;;
38208;SDS011;24016;52.102;11.584;2024-02-26T10:58:22;9.40;;;7.00;;
38208;SDS011;24016;52.102;11.584;2024-02-26T11:00:50;10.35;;;6.55;;
38208;SDS011;24016;52.102;11.584;2024-02-26T11:03:16;11.77;;;7.43;;
38208;SDS011;24016;52.102;11.584;2024-02-26T11:05:44;11.35;;;7.03;;
38208;SDS011;24016;52.102;11.584;2024-02-26T11:08:18;12.02;;;7.75;;
38208;SDS011;24016;52.102;11.584;2024-02-26T11:13:14;10.27;;;7.18;;
38208;SDS011;24016;52.102;11.584;2024-02-26T11:15:42;12.55;;;7.63;;
38208;SDS011;24016;52.102;11.584;2024-02-26T11:18:09;10.25;;;7.82;;
38208;SDS011;24016;52.102;11.584;2024-02-26T11:20:38;11.95;;;7.90;;
38208;SDS011;24016;52.102;11.584;2024-02-26T11:23:06;11.48;;;8.35;;
38208;SDS011;24016;52.102;11.584;2024-02-26T11:25:32;10.63;;;7.88;;
38208;SDS011;24016;52.102;11.584;2024-02-26T11:28:00;10.27;;;7.40;;
38208;SDS011;24016;52.102;11.584;2024-02-26T11:30:30;11.13;;;7.85;;
38208;SDS011;24016;52.102;11.584;2024-02-26T11:32:58;11.55;;;7.85;;
38208;SDS011;24016;52.102;11.584;2024-02-26T11:35:24;14.35;;;8.75;;
38208;SDS011;24016;52.102;11.584;2024-02-26T11:37:56;9.90;;;8.25;;
38208;SDS011;24016;52.102;11.584;2024-02-26T11:40:25;12.52;;;8.40;;
38208;SDS011;24016;52.102;11.584;2024-02-26T11:42:51;13.38;;;8.63;;
38208;SDS011;24016;52.102;11.584;2024-02-26T11:48:03;16.25;;;9.02;;
38208;SDS011;24016;52.102;11.584;2024-02-26T11:50:32;11.02;;;8.25;;
38208;SDS011;24016;52.102;11.584;2024-02-26T11:55:45;15.90;;;8.68;;
38208;SDS011;24016;52.102;11.584;2024-02-26T11:58:14;12.77;;;8.57;;
38208;SDS011;24016;52.102;11.584;2024-02-26T12:00:40;13.45;;;9.23;;
38208;SDS011;24016;52.102;11.584;2024-02-26T12:03:05;12.57;;;8.15;;
38208;SDS011;24016;52.102;11.584;2024-02-26T12:05:33;13.40;;;8.68;;
38208;SDS011;24016;52.102;11.584;2024-02-26T12:08:05;11.75;;;8.98;;
38208;SDS011;24016;52.102;11.584;2024-02-26T12:10:33;10.95;;;8.98;;
38208;SDS011;24016;52.102;11.584;2024-02-26T12:13:16;13.48;;;9.02;;
38208;SDS011;24016;52.102;11.584;2024-02-26T12:18:15;11.32;;;8.80;;
38208;SDS011;24016;52.102;11.584;2024-02-26T12:20:42;13.93;;;9.60;;
38208;SDS011;24016;52.102;11.584;2024-02-26T12:23:09;15.43;;;9.20;;
38208;SDS011;24016;52.102;11.584;2024-02-26T12:25:40;11.88;;;9.68;;
38208;SDS011;24016;52.102;11.584;2024-02-26T12:28:05;14.07;;;9.90;;
38208;SDS011;24016;52.102;11.584;2024-02-26T12:30:32;12.43;;;9.27;;
38208;SDS011;24016;52.102;11.584;2024-02-26T12:32:57;13.77;;;9.77;;
38208;SDS011;24016;52.102;11.584;2024-02-26T12:35:25;12.90;;;10.13;;
38208;SDS011;24016;52.102;11.584;2024-02-26T12:37:52;14.05;;;10.10;;
38208;SDS011;24016;52.102;11.584;2024-02-26T12:40:18;15.50;;;10.93;;
38208;SDS011;24016;52.102;11.584;2024-02-26T12:42:44;12.18;;;9.73;;
38208;SDS011;24016;52.102;11.584;2024-02-26T12:45:11;13.95;;;9.35;;
38208;SDS011;24016;52.102;11.584;2024-02-26T12:47:40;11.10;;;8.68;;
38208;SDS011;24016;52.102;11.584;2024-02-26T12:50:07;13.50;;;9.88;;
38208;SDS011;24016;52.102;11.584;2024-02-26T12:52:35;12.57;;;9.23;;
38208;SDS011;24016;52.102;11.584;2024-02-26T12:55:11;13.13;;;9.93;;
38208;SDS011;24016;52.102;11.584;2024-02-26T12:57:42;13.07;;;9.30;;
38208;SDS011;24016;52.102;11.584;2024-02-26T13:00:11;13.52;;;10.20;;
38208;SDS011;24016;52.102;11.584;2024-02-26T13:02:39;12.65;;;9.93;;
38208;SDS011;24016;52.102;11.584;2024-02-26T13:05:06;14.20;;;10.82;;
38208;SDS011;24016;52.102;11.584;2024-02-26T13:07:32;13.20;;;10.02;;
38208;SDS011;24016;52.102;11.584;2024-02-26T13:09:59;12.88;;;9.32;;
38208;SDS011;24016;52.102;11.584;2024-02-26T13:12:25;14.05;;;9.32;;
38208;SDS011;24016;52.102;11.584;2024-02-26T13:14:58;12.40;;;9.13;;
38208;SDS011;24016;52.102;11.584;2024-02-26T13:17:25;14.07;;;9.60;;
38208;SDS011;24016;52.102;11.584;2024-02-26T13:19:52;12.32;;;9.40;;
38208;SDS011;24016;52.102;11.584;2024-02-26T13:22:20;17.20;;;10.70;;
38208;SDS011;24016;52.102;11.584;2024-02-26T13:24:52;13.85;;;9.77;;
38208;SDS011;24016;52.102;11.584;2024-02-26T13:27:23;14.40;;;9.70;;
38208;SDS011;24016;52.102;11.584;2024-02-26T13:30:02;13.68;;;9.88;;
38208;SDS011;24016;52.102;11.584;2024-02-26T13:32:34;12.80;;;8.80;;
38208;SDS011;24016;52.102;11.584;2024-02-26T13:37:36;13.40;;;9.68;;
38208;SDS011;24016;52.102;11.584;2024-02-26T13:40:06;13.60;;;9.73;;
38208;SDS011;24016;52.102;11.584;2024-02-26T13:42:33;14.15;;;9.75;;
38208;SDS011;24016;52.102;11.584;2024-02-26T13:44:59;14.15;;;9.65;;
38208;SDS011;24016;52.102;11.584;2024-02-26T13:47:25;14.18;;;9.23;;
38208;SDS011;24016;52.102;11.584;2024-02-26T13:49:50;13.45;;;9.70;;
38208;SDS011;24016;52.102;11.584;2024-02-26T13:52:16;11.30;;;9.15;;
38208;SDS011;24016;52.102;11.584;2024-02-26T13:54:41;13.90;;;10.05;;
38208;SDS011;24016;52.102;11.584;2024-02-26T13:57:07;12.25;;;8.75;;
38208;SDS011;24016;52.102;11.584;2024-02-26T13:59:33;12.80;;;9.40;;
38208;SDS011;24016;52.102;11.584;2024-02-26T14:01:59;12.48;;;9.90;;
38208;SDS011;24016;52.102;11.584;2024-02-26T14:04:24;14.00;;;11.60;;
38208;SDS011;24016;52.102;11.584;2024-02-26T14:06:50;13.23;;;10.02;;
38208;SDS011;24016;52.102;11.584;2024-02-26T14:09:15;16.30;;;10.85;;
38208;SDS011;24016;52.102;11.584;2024-02-26T14:11:44;13.02;;;10.02;;
38208;SDS011;24016;52.102;11.584;2024-02-26T14:14:10;13.65;;;9.85;;
38208;SDS011;24016;52.102;11.584;2024-02-26T14:16:36;14.27;;;10.70;;
38208;SDS011;24016;52.102;11.584;2024-02-26T14:19:01;14.88;;;12.20;;
38208;SDS011;24016;52.102;11.584;2024-02-26T14:21:27;12.57;;;10.55;;
38208;SDS011;24016;52.102;11.584;2024-02-26T14:23:54;12.75;;;9.82;;
38208;SDS011;24016;52.102;11.584;2024-02-26T14:26:20;17.65;;;9.88;;
38208;SDS011;24016;52.102;11.584;2024-02-26T14:28:47;13.23;;;10.00;;
38208;SDS011;24016;52.102;11.584;2024-02-26T14:31:12;16.27;;;9.75;;
38208;SDS011;24016;52.102;11.584;2024-02-26T14:33:38;12.68;;;10.07;;